createdAt,value
2024-01-16T00:02:11.705Z,15.32
2024-01-16T00:04:39.015Z,12.30
2024-01-16T00:07:06.353Z,11.85
2024-01-16T00:09:36.578Z,7.80
2024-01-16T00:12:05.005Z,6.13
2024-01-16T00:14:36.541Z,8.98
2024-01-16T00:17:04.241Z,8.43
2024-01-16T00:19:31.897Z,7.63
2024-01-16T00:21:59.024Z,16.52
2024-01-16T00:24:26.139Z,15.20
2024-01-16T00:26:53.256Z,8.10
2024-01-16T00:29:20.536Z,5.70
2024-01-16T00:31:47.597Z,9.68
2024-01-16T00:34:15.076Z,10.93
2024-01-16T00:36:42.162Z,7.05
2024-01-16T00:39:09.351Z,10.63
2024-01-16T00:41:36.455Z,12.13
2024-01-16T00:44:04.156Z,20.15
2024-01-16T00:46:31.790Z,9.43
2024-01-16T00:48:58.915Z,10.88
2024-01-16T00:51:26.632Z,9.27
2024-01-16T00:53:53.716Z,7.25
2024-01-16T00:56:20.842Z,13.27
2024-01-16T00:58:47.899Z,13.68
2024-01-16T01:01:15.015Z,6.90
2024-01-16T01:03:42.085Z,8.05
2024-01-16T01:06:09.706Z,8.10
2024-01-16T01:08:36.838Z,13.15
2024-01-16T01:11:04.139Z,8.07
2024-01-16T01:13:31.265Z,8.88
2024-01-16T01:15:58.401Z,10.10
2024-01-16T01:18:25.578Z,7.93
2024-01-16T01:20:52.906Z,13.40
2024-01-16T01:23:20.027Z,8.68
2024-01-16T01:25:47.130Z,10.65
2024-01-16T01:28:14.273Z,15.48
2024-01-16T01:30:41.384Z,12.52
2024-01-16T01:33:08.586Z,18.40
2024-01-16T01:35:35.776Z,8.65
2024-01-16T01:38:03.171Z,9.48
2024-01-16T01:40:30.222Z,9.02
2024-01-16T01:42:57.240Z,12.32
2024-01-16T01:45:24.243Z,8.77
2024-01-16T01:47:51.545Z,12.48
2024-01-16T01:50:19.464Z,11.90
2024-01-16T01:52:46.801Z,7.82
2024-01-16T01:55:15.128Z,12.07
2024-01-16T01:57:44.230Z,6.43
2024-01-16T02:00:12.202Z,18.10
2024-01-16T02:02:42.790Z,19.42
2024-01-16T02:05:10.991Z,11.68
2024-01-16T02:07:39.260Z,9.77
2024-01-16T02:10:07.239Z,11.85
2024-01-16T02:12:34.417Z,5.72
2024-01-16T02:15:01.603Z,12.82
2024-01-16T02:17:28.715Z,10.35
2024-01-16T02:19:55.805Z,15.77
2024-01-16T02:22:29.362Z,14.02
2024-01-16T02:24:57.097Z,15.05
2024-01-16T02:27:24.125Z,11.32
2024-01-16T02:29:51.219Z,19.73
2024-01-16T02:32:18.489Z,11.45
2024-01-16T02:34:45.608Z,10.40
2024-01-16T02:37:12.743Z,12.35
2024-01-16T02:39:39.784Z,16.55
2024-01-16T02:42:07.366Z,12.85
2024-01-16T02:44:34.472Z,19.20
2024-01-16T02:47:02.048Z,19.38
2024-01-16T02:49:29.271Z,13.18
2024-01-16T02:51:56.326Z,12.50
2024-01-16T02:54:23.346Z,10.88
2024-01-16T02:56:50.965Z,11.10
2024-01-16T02:59:18.227Z,16.15
2024-01-16T03:01:45.560Z,13.48
2024-01-16T03:04:12.705Z,17.50
2024-01-16T03:06:40.376Z,18.60
2024-01-16T03:09:07.700Z,13.80
2024-01-16T03:11:34.973Z,14.20
2024-01-16T03:14:02.651Z,20.42
2024-01-16T03:16:30.004Z,15.90
2024-01-16T03:18:57.115Z,17.75
2024-01-16T03:21:24.314Z,17.17
2024-01-16T03:23:51.941Z,10.52
2024-01-16T03:26:19.265Z,15.38
2024-01-16T03:28:46.603Z,21.67
2024-01-16T03:31:16.677Z,16.55
2024-01-16T03:33:44.810Z,21.20
2024-01-16T03:36:13.921Z,21.58
2024-01-16T03:38:41.408Z,24.08
2024-01-16T03:41:09.050Z,22.38
2024-01-16T03:43:36.598Z,10.32
2024-01-16T03:46:04.283Z,11.68
2024-01-16T03:48:31.578Z,15.75
2024-01-16T03:50:58.889Z,27.77
2024-01-16T03:53:26.054Z,11.23
2024-01-16T03:55:53.123Z,9.55
2024-01-16T03:58:20.488Z,13.15
2024-01-16T04:00:48.247Z,13.85
2024-01-16T04:03:15.366Z,18.55
2024-01-16T04:05:42.572Z,18.67
2024-01-16T04:08:09.851Z,14.10
2024-01-16T04:10:36.950Z,17.30
2024-01-16T04:13:05.168Z,12.85
2024-01-16T04:15:32.426Z,15.15
2024-01-16T04:18:00.086Z,17.60
2024-01-16T04:20:27.163Z,17.75
2024-01-16T04:22:54.389Z,14.07
2024-01-16T04:25:21.491Z,14.50
2024-01-16T04:27:48.541Z,18.90
2024-01-16T04:30:15.835Z,14.55
2024-01-16T04:32:43.318Z,15.13
2024-01-16T04:35:10.719Z,14.02
2024-01-16T04:37:37.927Z,11.63
2024-01-16T04:40:06.472Z,19.52
2024-01-16T04:42:34.742Z,13.35
2024-01-16T04:45:02.446Z,24.27
2024-01-16T04:47:29.568Z,19.55
2024-01-16T04:49:56.668Z,16.23
2024-01-16T04:52:24.698Z,17.95
2024-01-16T04:54:51.762Z,13.57
2024-01-16T04:57:18.787Z,20.25
2024-01-16T04:59:45.849Z,18.40
2024-01-16T05:02:14.033Z,19.60
2024-01-16T05:04:41.090Z,13.70
2024-01-16T05:07:08.155Z,22.05
2024-01-16T05:09:35.177Z,21.27
2024-01-16T05:12:02.630Z,16.13
2024-01-16T05:14:30.333Z,22.35
2024-01-16T05:16:57.451Z,16.35
2024-01-16T05:19:24.611Z,18.83
2024-01-16T05:21:51.744Z,20.17
2024-01-16T05:24:18.772Z,19.08
2024-01-16T05:26:45.962Z,20.77
2024-01-16T05:29:13.329Z,24.38
2024-01-16T05:31:44.104Z,21.02
2024-01-16T05:34:11.810Z,14.60
2024-01-16T05:36:39.041Z,20.67
2024-01-16T05:39:06.149Z,25.13
2024-01-16T05:41:34.959Z,18.52
2024-01-16T05:44:04.768Z,21.42
2024-01-16T05:46:33.261Z,21.27
2024-01-16T05:49:00.621Z,20.42
2024-01-16T05:51:29.603Z,21.77
2024-01-16T05:53:57.573Z,16.75
2024-01-16T05:56:24.669Z,21.73
2024-01-16T05:58:53.115Z,23.70
2024-01-16T06:01:20.224Z,17.00
2024-01-16T06:03:49.759Z,16.23
2024-01-16T06:06:17.425Z,19.27
2024-01-16T06:08:44.634Z,20.10
2024-01-16T06:11:14.415Z,22.98
2024-01-16T06:13:42.120Z,22.55
2024-01-16T06:16:09.318Z,27.80
2024-01-16T06:18:37.008Z,15.48
2024-01-16T06:21:04.727Z,17.27
2024-01-16T06:23:31.944Z,23.10
2024-01-16T06:26:01.152Z,19.00
2024-01-16T06:28:28.771Z,23.15
2024-01-16T06:30:55.927Z,25.95
2024-01-16T06:33:23.228Z,20.60
2024-01-16T06:35:53.986Z,22.98
2024-01-16T06:38:21.733Z,21.45
2024-01-16T06:40:48.932Z,24.20
2024-01-16T06:43:16.811Z,18.17
2024-01-16T06:45:44.374Z,17.10
2024-01-16T06:48:11.966Z,22.85
2024-01-16T06:50:39.696Z,21.88
2024-01-16T06:53:06.716Z,26.52
2024-01-16T06:55:33.776Z,15.35
2024-01-16T06:58:00.886Z,15.63
2024-01-16T07:00:28.678Z,23.75
2024-01-16T07:02:56.011Z,19.80
2024-01-16T07:05:23.382Z,23.40
2024-01-16T07:07:50.553Z,21.60
2024-01-16T07:10:23.016Z,22.75
2024-01-16T07:15:17.893Z,22.60
2024-01-16T07:17:45.236Z,17.10
2024-01-16T07:20:12.667Z,20.13
2024-01-16T07:22:42.905Z,16.90
2024-01-16T07:25:10.307Z,16.58
2024-01-16T07:27:37.718Z,14.88
2024-01-16T07:30:08.424Z,17.98
2024-01-16T07:32:36.074Z,16.35
2024-01-16T07:35:04.147Z,14.63
2024-01-16T07:37:31.459Z,11.10
2024-01-16T07:39:58.476Z,21.15
2024-01-16T07:42:26.011Z,17.83
2024-01-16T07:44:54.068Z,13.02
2024-01-16T07:47:21.183Z,20.00
2024-01-16T07:49:48.427Z,11.57
2024-01-16T07:52:15.546Z,11.48
2024-01-16T07:54:42.618Z,14.82
2024-01-16T07:57:09.662Z,15.07
2024-01-16T07:59:36.791Z,13.93
2024-01-16T08:02:03.917Z,16.90
2024-01-16T08:04:30.988Z,12.55
2024-01-16T08:06:58.199Z,15.05
2024-01-16T08:09:26.259Z,24.83
2024-01-16T08:11:53.332Z,14.80
2024-01-16T08:14:20.572Z,19.65
2024-01-16T08:16:47.668Z,19.52
2024-01-16T08:19:15.614Z,21.98
2024-01-16T08:21:42.863Z,15.05
2024-01-16T08:24:09.931Z,19.75
2024-01-16T08:26:36.985Z,19.05
2024-01-16T08:29:04.040Z,17.38
2024-01-16T08:31:31.069Z,25.27
2024-01-16T08:33:58.667Z,21.80
2024-01-16T08:36:25.884Z,30.42
2024-01-16T08:38:53.662Z,19.40
2024-01-16T08:41:21.289Z,18.60
2024-01-16T08:43:48.707Z,15.63
2024-01-16T08:46:16.430Z,24.40
2024-01-16T08:48:43.706Z,26.70
2024-01-16T08:51:15.873Z,14.18
2024-01-16T08:53:43.345Z,14.55
2024-01-16T08:56:10.833Z,23.33
2024-01-16T08:58:39.379Z,17.23
2024-01-16T09:01:06.807Z,13.88
2024-01-16T09:03:35.199Z,25.05
2024-01-16T09:06:04.085Z,15.00
2024-01-16T09:08:31.413Z,10.93
2024-01-16T09:10:58.602Z,13.18
2024-01-16T09:13:25.652Z,20.13
2024-01-16T09:15:52.740Z,8.98
2024-01-16T09:18:20.531Z,14.35
2024-01-16T09:20:48.548Z,18.77
2024-01-16T09:23:15.693Z,16.85
2024-01-16T09:25:45.395Z,10.55
2024-01-16T09:28:13.506Z,17.52
2024-01-16T09:30:40.546Z,11.32
2024-01-16T09:33:08.303Z,9.88
2024-01-16T09:35:35.774Z,16.58
2024-01-16T09:38:03.638Z,9.07
2024-01-16T09:40:30.694Z,7.85
2024-01-16T09:42:58.359Z,12.02
2024-01-16T09:45:26.166Z,9.77
2024-01-16T09:47:54.456Z,9.75
2024-01-16T09:50:22.509Z,6.50
2024-01-16T09:52:50.334Z,17.17
2024-01-16T09:55:17.557Z,9.85
2024-01-16T09:57:47.299Z,8.75
2024-01-16T10:00:16.541Z,13.15
2024-01-16T10:02:44.115Z,8.93
2024-01-16T10:05:12.578Z,14.52
2024-01-16T10:07:41.621Z,6.65
2024-01-16T10:10:19.522Z,7.95
2024-01-16T10:12:52.079Z,13.63
2024-01-16T10:15:21.271Z,18.27
2024-01-16T10:17:48.387Z,12.25
2024-01-16T10:20:18.187Z,8.95
2024-01-16T10:22:55.455Z,11.45
2024-01-16T10:25:23.709Z,10.15
2024-01-16T10:28:04.561Z,10.80
2024-01-16T10:30:31.934Z,10.32
2024-01-16T10:33:14.212Z,10.20
2024-01-16T10:35:42.151Z,14.75
2024-01-16T10:38:09.203Z,9.07
2024-01-16T10:40:36.325Z,4.38
2024-01-16T10:43:06.566Z,12.30
2024-01-16T10:45:34.688Z,11.82
2024-01-16T10:48:06.934Z,12.65
2024-01-16T10:53:08.548Z,9.70
2024-01-16T10:55:49.080Z,11.20
2024-01-16T10:58:17.925Z,10.75
2024-01-16T11:00:52.871Z,9.63
2024-01-16T11:03:28.636Z,13.18
2024-01-16T11:05:59.161Z,5.28
2024-01-16T11:08:31.996Z,6.97
2024-01-16T11:11:01.937Z,5.30
2024-01-16T11:13:35.062Z,13.02
2024-01-16T11:16:05.145Z,6.10
2024-01-16T11:18:36.496Z,10.32
2024-01-16T11:21:09.696Z,10.97
2024-01-16T11:23:39.168Z,10.98
2024-01-16T11:26:35.616Z,14.10
2024-01-16T11:29:28.861Z,10.35
2024-01-16T11:32:12.805Z,7.95
2024-01-16T11:34:45.216Z,7.00
2024-01-16T11:37:13.431Z,12.18
2024-01-16T11:39:41.740Z,7.15
2024-01-16T11:42:11.908Z,5.93
2024-01-16T11:44:55.277Z,4.20
2024-01-16T11:47:24.695Z,2.70
2024-01-16T11:50:08.533Z,5.53
2024-01-16T11:52:45.924Z,12.15
2024-01-16T11:55:36.599Z,6.55
2024-01-16T11:58:12.632Z,24.98
2024-01-16T12:00:42.290Z,6.65
2024-01-16T12:03:11.761Z,17.10
2024-01-16T12:05:39.030Z,7.88
2024-01-16T12:08:07.290Z,14.48
2024-01-16T12:10:47.262Z,10.27
2024-01-16T12:13:14.455Z,4.55
2024-01-16T12:15:42.704Z,15.88
2024-01-16T12:18:19.582Z,5.40
2024-01-16T12:20:54.528Z,6.22
2024-01-16T12:23:23.165Z,8.75
2024-01-16T12:26:03.712Z,12.50
2024-01-16T12:28:33.705Z,4.57
2024-01-16T12:31:02.411Z,8.65
2024-01-16T12:33:30.329Z,4.68
2024-01-16T12:36:07.224Z,10.23
2024-01-16T12:38:34.689Z,7.10
2024-01-16T12:41:03.583Z,3.92
2024-01-16T12:43:33.013Z,5.80
2024-01-16T12:46:00.358Z,16.13
2024-01-16T12:48:28.341Z,9.95
2024-01-16T12:51:06.285Z,16.50
2024-01-16T12:53:35.360Z,6.38
2024-01-16T12:56:04.534Z,5.25
2024-01-16T12:58:36.247Z,3.80
2024-01-16T13:01:31.866Z,7.50
2024-01-16T13:04:06.159Z,6.60
2024-01-16T13:06:33.560Z,8.70
2024-01-16T13:09:20.221Z,7.63
2024-01-16T13:11:48.350Z,9.75
2024-01-16T13:14:15.473Z,9.27
2024-01-16T13:16:42.564Z,7.65
2024-01-16T13:19:11.985Z,4.30
2024-01-16T13:21:39.181Z,7.45
2024-01-16T13:24:07.245Z,8.02
2024-01-16T13:26:34.313Z,5.13
2024-01-16T13:29:01.732Z,16.33
2024-01-16T13:31:28.886Z,8.32
2024-01-16T13:33:57.697Z,12.18
2024-01-16T13:36:46.470Z,5.45
2024-01-16T13:39:14.162Z,7.25
2024-01-16T13:41:43.593Z,10.60
2024-01-16T13:44:10.685Z,15.30
2024-01-16T13:49:08.991Z,12.55
2024-01-16T13:51:36.395Z,6.93
2024-01-16T13:54:04.524Z,6.22
2024-01-16T13:56:48.739Z,6.00
2024-01-16T13:59:19.062Z,11.52
2024-01-16T14:01:46.282Z,8.38
2024-01-16T14:04:13.343Z,6.93
2024-01-16T14:06:56.215Z,7.47
2024-01-16T14:09:28.441Z,6.90
2024-01-16T14:11:55.558Z,15.65
2024-01-16T14:14:22.697Z,5.55
2024-01-16T14:16:54.629Z,13.68
2024-01-16T14:19:29.095Z,7.95
2024-01-16T14:21:56.266Z,4.13
2024-01-16T14:24:23.297Z,14.15
2024-01-16T14:26:50.545Z,11.15
2024-01-16T14:29:17.830Z,12.05
2024-01-16T14:31:45.146Z,1.98
2024-01-16T14:34:14.392Z,13.38
2024-01-16T14:36:42.468Z,4.28
2024-01-16T14:39:14.346Z,7.50
2024-01-16T14:41:42.523Z,9.45
2024-01-16T14:44:10.966Z,11.40
2024-01-16T14:46:38.160Z,6.13
2024-01-16T14:49:05.506Z,8.25
2024-01-16T14:51:33.556Z,12.65
2024-01-16T14:54:02.894Z,12.00
2024-01-16T14:56:31.378Z,12.90
2024-01-16T14:58:58.834Z,11.65
2024-01-16T15:01:26.144Z,5.68
2024-01-16T15:03:54.712Z,15.57
2024-01-16T15:06:22.563Z,11.30
2024-01-16T15:08:49.733Z,8.50
2024-01-16T15:11:18.204Z,7.15
2024-01-16T15:13:46.036Z,14.27
2024-01-16T15:16:13.257Z,15.93
2024-01-16T15:18:40.560Z,7.78
2024-01-16T15:21:08.043Z,13.75
2024-01-16T15:23:35.156Z,12.50
2024-01-16T15:26:04.357Z,6.90
2024-01-16T15:28:32.838Z,10.93
2024-01-16T15:31:07.383Z,8.27
2024-01-16T15:33:37.984Z,13.18
2024-01-16T15:36:05.544Z,14.32
2024-01-16T15:38:32.908Z,5.95
2024-01-16T15:41:00.107Z,7.07
2024-01-16T15:43:28.005Z,10.13
2024-01-16T15:45:55.843Z,8.95
2024-01-16T15:48:22.909Z,5.13
2024-01-16T15:50:50.083Z,16.42
2024-01-16T15:53:17.669Z,13.80
2024-01-16T15:55:45.093Z,7.15
2024-01-16T15:58:13.288Z,11.82
2024-01-16T16:00:40.529Z,11.70
2024-01-16T16:03:08.051Z,18.65
2024-01-16T16:05:35.348Z,9.20
2024-01-16T16:08:02.603Z,9.57
2024-01-16T16:10:29.675Z,6.80
2024-01-16T16:12:56.701Z,10.48
2024-01-16T16:15:23.817Z,10.48
2024-01-16T16:17:53.441Z,17.17
2024-01-16T16:20:25.496Z,16.02
2024-01-16T16:22:54.403Z,15.00
2024-01-16T16:25:21.518Z,14.05
2024-01-16T16:27:48.744Z,10.25
2024-01-16T16:30:16.115Z,6.38
2024-01-16T16:32:43.833Z,7.88
2024-01-16T16:35:11.435Z,20.00
2024-01-16T16:37:38.584Z,10.30
2024-01-16T16:40:07.053Z,10.93
2024-01-16T16:42:34.130Z,12.95
2024-01-16T16:45:01.860Z,14.00
2024-01-16T16:47:29.216Z,12.48
2024-01-16T16:49:56.366Z,9.95
2024-01-16T16:52:23.458Z,13.90
2024-01-16T16:54:50.664Z,15.48
2024-01-16T16:57:18.415Z,13.75
2024-01-16T16:59:46.487Z,22.02
2024-01-16T17:02:13.640Z,13.18
2024-01-16T17:04:41.073Z,20.33
2024-01-16T17:07:11.462Z,15.07
2024-01-16T17:09:41.305Z,18.80
2024-01-16T17:12:08.587Z,24.52
2024-01-16T17:14:35.917Z,20.45
2024-01-16T17:17:04.495Z,22.13
2024-01-16T17:19:31.692Z,17.33
2024-01-16T17:21:59.801Z,21.70
2024-01-16T17:24:27.727Z,13.43
2024-01-16T17:26:55.129Z,16.17
2024-01-16T17:29:22.298Z,17.63
2024-01-16T17:31:49.503Z,21.38
2024-01-16T17:34:17.622Z,19.98
2024-01-16T17:36:47.550Z,29.33
2024-01-16T17:39:16.520Z,28.60
2024-01-16T17:41:46.440Z,31.83
2024-01-16T17:44:13.858Z,15.65
2024-01-16T17:46:45.798Z,16.25
2024-01-16T17:49:13.648Z,25.70
2024-01-16T17:51:40.855Z,18.15
2024-01-16T17:54:07.998Z,15.15
2024-01-16T17:56:36.284Z,20.15
2024-01-16T17:59:05.027Z,11.75
2024-01-16T18:01:33.734Z,19.50
2024-01-16T18:04:01.442Z,16.77
2024-01-16T18:06:28.764Z,23.60
2024-01-16T18:08:56.072Z,11.35
2024-01-16T18:11:24.226Z,17.95
2024-01-16T18:13:51.327Z,16.88
2024-01-16T18:16:18.765Z,17.80
2024-01-16T18:18:46.196Z,23.88
2024-01-16T18:21:14.067Z,18.50
2024-01-16T18:23:42.077Z,22.52
2024-01-16T18:26:09.817Z,20.98
2024-01-16T18:28:37.103Z,25.00
2024-01-16T18:31:04.787Z,23.55
2024-01-16T18:33:33.609Z,21.88
2024-01-16T18:36:03.114Z,22.13
2024-01-16T18:38:30.226Z,21.73
2024-01-16T18:40:59.301Z,28.63
2024-01-16T18:43:28.694Z,27.25
2024-01-16T18:45:55.776Z,37.95
2024-01-16T18:48:22.985Z,32.10
2024-01-16T18:50:55.454Z,33.08
2024-01-16T18:53:23.125Z,32.75
2024-01-16T18:55:53.283Z,28.98
2024-01-16T18:58:21.794Z,28.67
2024-01-16T19:00:51.337Z,37.25
2024-01-16T19:03:19.927Z,26.60
2024-01-16T19:05:47.556Z,36.20
2024-01-16T19:08:15.256Z,24.77
2024-01-16T19:10:42.731Z,28.55
2024-01-16T19:13:12.170Z,42.67
2024-01-16T19:15:39.324Z,33.50
2024-01-16T19:18:07.051Z,21.67
2024-01-16T19:20:34.842Z,24.67
2024-01-16T19:23:03.936Z,34.60
2024-01-16T19:25:31.044Z,34.22
2024-01-16T19:27:58.884Z,23.02
2024-01-16T19:30:26.539Z,29.92
2024-01-16T19:32:53.792Z,22.88
2024-01-16T19:35:21.143Z,29.45
2024-01-16T19:37:48.175Z,30.27
2024-01-16T19:40:17.199Z,39.70
2024-01-16T19:42:44.821Z,48.85
2024-01-16T19:45:12.765Z,59.33
2024-01-16T19:47:41.788Z,68.88
2024-01-16T19:50:23.115Z,65.53
2024-01-16T19:52:56.186Z,58.53
2024-01-16T19:55:27.138Z,62.00
2024-01-16T19:57:55.266Z,50.53
2024-01-16T20:00:22.670Z,51.20
2024-01-16T20:02:50.660Z,38.72
2024-01-16T20:05:18.424Z,28.40
2024-01-16T20:07:46.453Z,29.80
2024-01-16T20:10:16.902Z,38.40
2024-01-16T20:12:46.464Z,23.98
2024-01-16T20:15:16.692Z,25.90
2024-01-16T20:17:45.229Z,26.00
2024-01-16T20:20:14.243Z,25.13
2024-01-16T20:22:42.250Z,22.02
2024-01-16T20:25:19.815Z,25.35
2024-01-16T20:27:47.642Z,27.80
2024-01-16T20:30:14.977Z,22.85
2024-01-16T20:32:53.994Z,24.08
2024-01-16T20:35:24.305Z,34.53
2024-01-16T20:37:51.518Z,35.67
2024-01-16T20:40:18.835Z,24.92
2024-01-16T20:42:45.861Z,25.42
2024-01-16T20:45:13.072Z,45.00
2024-01-16T20:47:41.126Z,42.70
2024-01-16T20:50:10.790Z,36.35
2024-01-16T20:52:38.380Z,37.58
2024-01-16T20:55:08.109Z,34.50
2024-01-16T20:57:36.145Z,26.05
2024-01-16T21:00:06.075Z,41.13
2024-01-16T21:02:33.393Z,32.33
2024-01-16T21:05:00.873Z,47.85
2024-01-16T21:07:28.515Z,40.85
2024-01-16T21:09:56.403Z,39.70
2024-01-16T21:12:23.895Z,35.17
2024-01-16T21:14:51.233Z,32.28
2024-01-16T21:17:18.516Z,31.00
2024-01-16T21:19:45.940Z,41.75
2024-01-16T21:22:16.645Z,42.75
2024-01-16T21:24:45.714Z,28.20
2024-01-16T21:27:15.386Z,34.60
2024-01-16T21:29:45.116Z,22.98
2024-01-16T21:32:12.478Z,25.13
2024-01-16T21:34:39.626Z,25.70
2024-01-16T21:37:06.804Z,31.80
2024-01-16T21:39:36.137Z,32.78
2024-01-16T21:42:04.269Z,43.30
2024-01-16T21:44:32.991Z,46.90
2024-01-16T21:47:00.136Z,39.90
2024-01-16T21:49:27.435Z,38.20
2024-01-16T21:51:54.521Z,36.35
2024-01-16T21:54:22.281Z,35.20
2024-01-16T21:56:49.462Z,37.72
2024-01-16T21:59:16.614Z,34.15
2024-01-16T22:01:46.985Z,30.52
2024-01-16T22:04:14.484Z,24.33
2024-01-16T22:06:42.505Z,31.17
2024-01-16T22:09:14.913Z,37.40
2024-01-16T22:11:42.702Z,26.20
2024-01-16T22:14:09.821Z,27.30
2024-01-16T22:16:36.836Z,37.35
2024-01-16T22:19:04.113Z,27.88
2024-01-16T22:21:33.993Z,27.67
2024-01-16T22:24:01.513Z,27.52
2024-01-16T22:26:28.861Z,30.67
2024-01-16T22:28:56.670Z,34.50
2024-01-16T22:31:23.733Z,27.58
2024-01-16T22:33:51.071Z,28.08
2024-01-16T22:36:19.764Z,30.27
2024-01-16T22:38:48.040Z,27.63
2024-01-16T22:41:15.140Z,32.63
2024-01-16T22:43:45.131Z,33.13
2024-01-16T22:46:12.236Z,27.55
2024-01-16T22:48:39.782Z,25.13
2024-01-16T22:51:07.164Z,25.48
2024-01-16T22:53:34.390Z,29.90
2024-01-16T22:56:01.553Z,41.55
2024-01-16T22:58:28.579Z,23.92
2024-01-16T23:00:55.667Z,22.02
2024-01-16T23:03:22.788Z,26.15
2024-01-16T23:05:50.118Z,31.30
2024-01-16T23:08:19.374Z,35.80
2024-01-16T23:10:47.420Z,27.38
2024-01-16T23:13:14.563Z,23.40
2024-01-16T23:15:41.628Z,29.92
2024-01-16T23:18:08.855Z,22.33
2024-01-16T23:20:36.121Z,28.42
2024-01-16T23:23:03.289Z,27.88
2024-01-16T23:25:30.381Z,28.48
2024-01-16T23:27:57.484Z,30.52
2024-01-16T23:30:24.963Z,42.85
2024-01-16T23:32:52.137Z,21.70
2024-01-16T23:35:20.168Z,29.58
2024-01-16T23:37:49.433Z,29.30
2024-01-16T23:40:18.353Z,33.63
2024-01-16T23:42:45.988Z,42.85
2024-01-16T23:45:23.498Z,29.33
2024-01-16T23:47:55.703Z,29.65
2024-01-16T23:50:23.078Z,29.73
2024-01-16T23:52:51.023Z,28.90
2024-01-16T23:55:19.020Z,37.55
2024-01-16T23:57:47.290Z,35.20
